Blanchard Township, Maine
Current Conditions -  °F | °C
As of 8:53 PM on Sunday 25 Jan 2015 (Local Time) from KMLT Reporting Station
Clear Clear  
Wind Chill: -23°   Ceiling: Unl
Heat Index: -13°   Visibility: 10mi
Dew Point: -20°   Wind: 17mph
Humidity: 56%   Direction: 280°W
Pressure: 29.81"   Gusts: 26mph
Location:  45.3122°N, 69.5439°W
Report Text: KMLT 260153Z AUTO 28015G23KT 10SM CLR M13/M20 A2981 RMK AO2 PK WND 28031/0054 SLP105 T11281200
Loading
Personal Weather Stations






























Interactive Weather Map New forecast layout! Learn more

10-Day Weather Forecast

Advertisements
Track Severe Weather on mobile